Strona główna
METAR-TAF:

METAR-TAF

Lotnisko :

Stornoway, Szkocja

Szerokość geograficzna: 58-13N, Długość geograficzna: 006-19W, wysokość: 9 m

Aktualna obserwacja pogody

Raport powstał 30 minut temu, godzina 02:20 UTC
Wiatr 5 kt od północny zachód
Temperatura 9°C
Wilgotność 100%
Ciśnienie 1007 hPa
Widzialność 10 km lub więcej

METAR: EGPO 040220Z AUTO 31005KT 9999 FEW013/// BKN041/// BKN049/// 09/09 Q1007

czas: 03:50 (02:50 UTC)

Prognoza

Raport powstał 47 minut temu, godzina 02:03 UTC
Prognoza ważna od 04 godzina 03 UTC do 04 godzina 12 UTC
Wiatr 8 kt od północny zachód
Widzialność 10 km lub więcej
Rozproszone chmury na wysokości 2000 ft
Przejściowo
od 04 godzina 03 UTC do 04 godzina 11 UTC
Widzialność: 6000 m
Przerywane chmury na wysokości 400 ft
przelotny opad deszczu
Stopniowe zmiany
od 04 godzina 06 UTC do 04 godzina 09 UTC
Wiatr 15 kt od północno-północny wschód

TAF: EGPO 040203Z 0403/0412 32008KT 9999 SCT020 TEMPO 0403/0411 6000 SHRA BKN004 BECMG 0406/0409 02015KT

Obserwacja i prognoza pogody dla ponad 4000 lotnisk (raport METAR i TAF).

Dostępne stacje oznaczono żółtymi i czerwonymi punktami na mapie.

Najedź kursorem aby zobaczyć nazwę stacji.

Kliknij aby zobaczyć obserwacje i prognozy pogody.

Aby zmienić mapę: kliknij na zielony przycisk z czarnym krzyżykiem, aby powiększyć; na zielony przycisk z myślnikiem, aby pomniejszyć; na zielone strzałki, aby przejść do map sąsiednich.


METAR-TAF: